createdAt,value
2022-10-18T00:00:15.128Z,18.9
2022-10-18T00:01:32.110Z,18.8
2022-10-18T00:02:49.142Z,18.8
2022-10-18T00:04:06.150Z,18.7
2022-10-18T00:05:23.114Z,18.6
2022-10-18T00:06:42.535Z,18.5
2022-10-18T00:07:57.141Z,18.2
2022-10-18T00:09:14.108Z,18.2
2022-10-18T00:10:31.167Z,18.2
2022-10-18T00:11:48.125Z,18.2
2022-10-18T00:13:05.185Z,18.3
2022-10-18T00:14:22.124Z,18.4
2022-10-18T00:15:39.139Z,18.5
2022-10-18T00:16:56.125Z,18.5
2022-10-18T00:18:13.153Z,18.5
2022-10-18T00:19:30.136Z,18.5
2022-10-18T00:20:47.136Z,18.6
2022-10-18T00:22:04.262Z,18.6
2022-10-18T00:23:21.161Z,18.6
2022-10-18T00:24:38.161Z,18.7
2022-10-18T00:25:55.205Z,18.7
2022-10-18T00:27:12.177Z,18.7
2022-10-18T00:28:29.199Z,18.8
2022-10-18T00:29:46.151Z,18.8
2022-10-18T00:31:03.158Z,18.8
2022-10-18T00:32:20.187Z,18.8
2022-10-18T00:33:37.239Z,18.8
2022-10-18T00:34:54.156Z,18.7
2022-10-18T00:36:11.180Z,18.6
2022-10-18T00:37:28.163Z,18.5
2022-10-18T00:38:45.201Z,18.5
2022-10-18T00:40:02.303Z,18.5
2022-10-18T00:41:19.223Z,18.5
2022-10-18T00:42:36.166Z,18.5
2022-10-18T00:43:53.198Z,18.6
2022-10-18T00:45:10.180Z,18.7
2022-10-18T00:46:27.228Z,18.8
2022-10-18T00:47:44.184Z,18.8
2022-10-18T00:49:01.243Z,18.9
2022-10-18T00:50:18.213Z,18.9
2022-10-18T00:51:35.220Z,18.8
2022-10-18T00:52:52.321Z,18.8
2022-10-18T00:54:09.208Z,18.8
2022-10-18T00:55:26.186Z,18.9
2022-10-18T00:56:43.267Z,18.7
2022-10-18T00:58:00.278Z,18.4
2022-10-18T00:59:17.203Z,18.2
2022-10-18T01:00:34.225Z,18.1
2022-10-18T01:01:51.262Z,17.9
2022-10-18T01:03:08.381Z,17.7
2022-10-18T01:04:25.215Z,17.6
2022-10-18T01:05:42.208Z,17.5
2022-10-18T01:06:59.400Z,17.4
2022-10-18T01:08:16.293Z,17.4
2022-10-18T01:09:33.503Z,17.3
2022-10-18T01:10:50.208Z,17.4
2022-10-18T01:12:07.247Z,17.5
2022-10-18T01:13:25.565Z,17.7
2022-10-18T01:14:41.218Z,17.7
2022-10-18T01:15:58.255Z,17.8
2022-10-18T01:17:15.240Z,17.9
2022-10-18T01:18:32.241Z,18
2022-10-18T01:19:49.288Z,18
2022-10-18T01:21:06.264Z,18.1
2022-10-18T01:22:23.253Z,18.1
2022-10-18T01:23:40.225Z,18.1
2022-10-18T01:24:57.352Z,18.1
2022-10-18T01:26:14.247Z,18
2022-10-18T01:27:31.621Z,18
2022-10-18T01:28:48.311Z,18
2022-10-18T01:30:05.303Z,18
2022-10-18T01:31:22.240Z,18
2022-10-18T01:32:39.275Z,17.9
2022-10-18T01:33:56.285Z,17.8
2022-10-18T01:35:13.339Z,17.8
2022-10-18T01:36:30.256Z,17.8
2022-10-18T01:37:47.253Z,17.8
2022-10-18T01:39:04.272Z,17.8
2022-10-18T01:40:21.313Z,17.8
2022-10-18T01:41:38.249Z,17.9
2022-10-18T01:42:55.325Z,17.8
2022-10-18T01:44:12.397Z,17.8
2022-10-18T01:45:29.305Z,17.9
2022-10-18T01:46:46.268Z,17.9
2022-10-18T01:48:03.302Z,17.9
2022-10-18T01:49:20.298Z,17.9
2022-10-18T01:50:37.310Z,17.9
2022-10-18T01:51:54.318Z,17.9
2022-10-18T01:53:11.274Z,17.9
2022-10-18T01:54:28.280Z,17.9
2022-10-18T01:55:45.305Z,17.9
2022-10-18T01:57:02.343Z,17.9
2022-10-18T01:58:19.312Z,17.9
2022-10-18T01:59:36.309Z,18
2022-10-18T02:00:53.290Z,18
2022-10-18T02:02:10.333Z,18.1
2022-10-18T02:03:27.299Z,18.2
2022-10-18T02:04:44.400Z,18.2
2022-10-18T02:06:01.436Z,18.2
2022-10-18T02:07:18.307Z,18.1
2022-10-18T02:08:35.360Z,18
2022-10-18T02:09:52.298Z,17.8
2022-10-18T02:11:09.323Z,17.6
2022-10-18T02:12:26.322Z,17.5
2022-10-18T02:13:43.894Z,17.4
2022-10-18T02:15:00.307Z,17.2
2022-10-18T02:16:17.325Z,17.1
2022-10-18T02:17:34.336Z,17
2022-10-18T02:18:51.369Z,16.9
2022-10-18T02:20:08.312Z,16.7
2022-10-18T02:21:25.330Z,16.7
2022-10-18T02:22:42.323Z,16.7
2022-10-18T02:23:59.390Z,16.8
2022-10-18T02:25:16.334Z,16.9
2022-10-18T02:26:33.320Z,17.1
2022-10-18T02:27:50.321Z,17.2
2022-10-18T02:29:07.410Z,17.3
2022-10-18T02:30:24.351Z,17.3
2022-10-18T02:31:41.335Z,17.4
2022-10-18T02:32:58.337Z,17.4
2022-10-18T02:34:15.364Z,17.4
2022-10-18T02:35:32.370Z,17.4
2022-10-18T02:36:49.361Z,17.4
2022-10-18T02:38:06.343Z,17.3
2022-10-18T02:39:23.339Z,17.3
2022-10-18T02:40:40.375Z,17.2
2022-10-18T02:41:57.346Z,17.2
2022-10-18T02:43:14.378Z,17.1
2022-10-18T02:44:31.403Z,17.1
2022-10-18T02:45:48.352Z,17.1
2022-10-18T02:47:05.386Z,17.2
2022-10-18T02:48:22.373Z,17.2
2022-10-18T02:49:39.377Z,17.3
2022-10-18T02:50:56.390Z,17.2
2022-10-18T02:52:13.409Z,17.1
2022-10-18T02:53:30.422Z,17.1
2022-10-18T02:54:47.370Z,17.1
2022-10-18T02:56:04.369Z,17.2
2022-10-18T02:57:21.591Z,17.2
2022-10-18T02:58:38.382Z,17.2
2022-10-18T02:59:55.394Z,17.1
2022-10-18T03:01:12.493Z,17.1
2022-10-18T03:02:29.402Z,17.1
2022-10-18T03:03:46.371Z,17.2
2022-10-18T03:05:03.551Z,17.2
2022-10-18T03:06:20.473Z,17.2
2022-10-18T03:07:37.378Z,17.2
2022-10-18T03:08:54.429Z,17.2
2022-10-18T03:10:11.428Z,17.2
2022-10-18T03:11:28.399Z,17.2
2022-10-18T03:12:45.411Z,17.3
2022-10-18T03:14:02.422Z,17.3
2022-10-18T03:15:19.449Z,17.2
2022-10-18T03:16:36.391Z,17.1
2022-10-18T03:17:53.395Z,16.9
2022-10-18T03:19:10.429Z,16.8
2022-10-18T03:20:27.441Z,16.7
2022-10-18T03:21:44.407Z,16.5
2022-10-18T03:23:01.419Z,16.4
2022-10-18T03:24:18.406Z,16.4
2022-10-18T03:25:35.482Z,16.3
2022-10-18T03:26:52.410Z,16.2
2022-10-18T03:28:09.415Z,16.2
2022-10-18T03:29:26.424Z,16.2
2022-10-18T03:30:43.477Z,16.3
2022-10-18T03:32:00.481Z,16.4
2022-10-18T03:33:17.446Z,16.4
2022-10-18T03:34:34.433Z,16.4
2022-10-18T03:35:51.453Z,16.4
2022-10-18T03:37:08.463Z,16.5
2022-10-18T03:38:25.427Z,16.6
2022-10-18T03:39:42.471Z,16.6
2022-10-18T03:40:59.437Z,16.7
2022-10-18T03:42:16.514Z,16.8
2022-10-18T03:43:33.442Z,16.8
2022-10-18T03:44:50.443Z,16.8
2022-10-18T03:46:07.569Z,16.8
2022-10-18T03:47:24.477Z,16.9
2022-10-18T03:48:41.480Z,16.9
2022-10-18T03:49:58.454Z,16.9
2022-10-18T03:51:15.443Z,16.9
2022-10-18T03:52:32.891Z,16.9
2022-10-18T03:53:49.465Z,16.9
2022-10-18T03:55:06.455Z,16.9
2022-10-18T03:56:23.485Z,16.9
2022-10-18T03:57:40.485Z,16.9
2022-10-18T03:58:57.492Z,16.9
2022-10-18T04:00:14.481Z,16.9
2022-10-18T04:01:31.591Z,16.9
2022-10-18T04:02:50.724Z,16.9
2022-10-18T04:04:05.474Z,16.9
2022-10-18T04:05:22.516Z,16.9
2022-10-18T04:06:39.511Z,16.9
2022-10-18T04:07:56.492Z,16.9
2022-10-18T04:09:13.542Z,16.9
2022-10-18T04:10:30.480Z,16.9
2022-10-18T04:11:47.504Z,16.8
2022-10-18T04:13:04.489Z,16.8
2022-10-18T04:14:21.542Z,16.7
2022-10-18T04:15:38.488Z,16.7
2022-10-18T04:16:55.518Z,16.7
2022-10-18T04:18:12.491Z,16.6
2022-10-18T04:19:29.527Z,16.6
2022-10-18T04:20:46.504Z,16.4
2022-10-18T04:22:03.501Z,16.3
2022-10-18T04:23:20.509Z,16.2
2022-10-18T04:24:37.592Z,16
2022-10-18T04:25:54.526Z,15.9
2022-10-18T04:27:11.526Z,15.8
2022-10-18T04:28:28.588Z,15.7
2022-10-18T04:29:45.577Z,15.6
2022-10-18T04:31:02.570Z,15.5
2022-10-18T04:32:19.545Z,15.4
2022-10-18T04:33:36.501Z,15.5
2022-10-18T04:34:53.533Z,15.5
2022-10-18T04:36:10.583Z,15.6
2022-10-18T04:37:27.564Z,15.8
2022-10-18T04:38:45.299Z,15.9
2022-10-18T04:40:02.583Z,16
2022-10-18T04:41:19.534Z,16.1
2022-10-18T04:42:36.557Z,16.2
2022-10-18T04:43:53.535Z,16.3
2022-10-18T04:45:10.561Z,16.3
2022-10-18T04:46:27.536Z,16.4
2022-10-18T04:47:44.560Z,16.4
2022-10-18T04:49:01.609Z,16.4
2022-10-18T04:50:18.565Z,16.5
2022-10-18T04:51:35.545Z,16.5
2022-10-18T04:52:52.642Z,16.5
2022-10-18T04:54:09.618Z,16.5
2022-10-18T04:55:26.551Z,16.5
2022-10-18T04:56:43.550Z,16.5
2022-10-18T04:58:00.563Z,16.5
2022-10-18T04:59:17.868Z,16.5
2022-10-18T05:00:39.077Z,16.5
2022-10-18T05:01:51.648Z,16.5
2022-10-18T05:03:08.562Z,16.5
2022-10-18T05:04:25.580Z,16.5
2022-10-18T05:06:00.550Z,16.6
2022-10-18T05:06:59.581Z,16.6
2022-10-18T05:08:16.568Z,16.5
2022-10-18T05:09:33.595Z,16.5
2022-10-18T05:10:50.649Z,16.5
2022-10-18T05:12:07.570Z,16.5
2022-10-18T05:13:24.569Z,16.5
2022-10-18T05:14:41.588Z,16.5
2022-10-18T05:15:58.643Z,16.5
2022-10-18T05:17:15.621Z,16.5
2022-10-18T05:18:32.590Z,16.5
2022-10-18T05:19:49.592Z,16.5
2022-10-18T05:21:06.683Z,16.5
2022-10-18T05:22:23.582Z,16.5
2022-10-18T05:23:40.597Z,16.4
2022-10-18T05:24:57.617Z,16.5
2022-10-18T05:26:14.680Z,16.5
2022-10-18T05:27:31.603Z,16.4
2022-10-18T05:28:48.686Z,16.5
2022-10-18T05:30:05.894Z,16.5
2022-10-18T05:31:22.598Z,16.3
2022-10-18T05:32:39.653Z,16.1
2022-10-18T05:33:56.664Z,16
2022-10-18T05:35:13.611Z,15.8
2022-10-18T05:36:30.691Z,15.7
2022-10-18T05:37:47.635Z,15.6
2022-10-18T05:39:05.058Z,15.6
2022-10-18T05:40:21.621Z,15.7
2022-10-18T05:41:38.611Z,15.8
2022-10-18T05:42:55.636Z,16
2022-10-18T05:44:12.615Z,16.1
2022-10-18T05:45:29.669Z,16.1
2022-10-18T05:46:46.627Z,16.2
2022-10-18T05:48:03.651Z,16.4
2022-10-18T05:49:20.624Z,16.5
2022-10-18T05:50:39.503Z,16.6
2022-10-18T05:51:54.670Z,16.7
2022-10-18T05:53:12.209Z,16.8
2022-10-18T05:54:28.645Z,16.9
2022-10-18T05:55:45.640Z,17
2022-10-18T05:57:02.643Z,17
2022-10-18T05:58:19.673Z,17
2022-10-18T05:59:36.646Z,17.1
2022-10-18T06:00:53.653Z,17.1
2022-10-18T06:02:10.745Z,17.1
2022-10-18T06:03:27.702Z,17.1
2022-10-18T06:04:44.652Z,17.2
2022-10-18T06:06:01.788Z,17.2
2022-10-18T06:07:18.703Z,17.2
2022-10-18T06:08:35.693Z,17.2
2022-10-18T06:09:52.691Z,17.2
2022-10-18T06:11:09.659Z,17.4
2022-10-18T06:12:26.664Z,17.5
2022-10-18T06:13:43.718Z,17.7
2022-10-18T06:15:00.669Z,18
2022-10-18T06:16:17.731Z,18.5
2022-10-18T06:17:35.117Z,19
2022-10-18T06:18:51.700Z,19.6
2022-10-18T06:20:08.656Z,20
2022-10-18T06:21:25.703Z,20.3
2022-10-18T06:22:42.699Z,20.5
2022-10-18T06:23:59.763Z,20.8
2022-10-18T06:25:16.679Z,20.9
2022-10-18T06:26:33.689Z,21
2022-10-18T06:27:50.725Z,21.1
2022-10-18T06:29:07.715Z,21.4
2022-10-18T06:30:24.779Z,21.7
2022-10-18T06:31:41.716Z,22.1
2022-10-18T06:32:58.743Z,22.5
2022-10-18T06:34:15.694Z,22.5
2022-10-18T06:35:32.711Z,22.4
2022-10-18T06:36:49.710Z,22.2
2022-10-18T06:38:06.790Z,22
2022-10-18T06:39:23.703Z,21.8
2022-10-18T06:40:40.744Z,21.6
2022-10-18T06:41:57.709Z,21.2
2022-10-18T06:43:20.870Z,20.8
2022-10-18T06:44:31.748Z,20.4
2022-10-18T06:45:48.708Z,20
2022-10-18T06:47:05.732Z,19.7
2022-10-18T06:48:22.752Z,19.4
2022-10-18T06:49:39.727Z,19.3
2022-10-18T06:50:56.722Z,19.1
2022-10-18T06:52:13.730Z,19.2
2022-10-18T06:53:30.812Z,19.4
2022-10-18T06:54:47.723Z,19.5
2022-10-18T06:56:05.880Z,19.6
2022-10-18T06:57:22.729Z,19.8
2022-10-18T06:58:39.814Z,20
2022-10-18T06:59:56.741Z,20.2
2022-10-18T07:01:13.775Z,20.4
2022-10-18T07:02:31.020Z,20.5
2022-10-18T07:03:47.768Z,20.7
2022-10-18T07:05:04.775Z,20.9
2022-10-18T07:06:21.755Z,21.1
2022-10-18T07:07:38.780Z,21.3
2022-10-18T07:08:55.845Z,21.5
2022-10-18T07:10:13.110Z,21.9
2022-10-18T07:11:29.764Z,22.2
2022-10-18T07:12:46.767Z,22.4
2022-10-18T07:14:03.840Z,22.8
2022-10-18T07:15:20.801Z,23
2022-10-18T07:16:37.777Z,23.3
2022-10-18T07:17:54.798Z,23.5
2022-10-18T07:19:11.852Z,23.5
2022-10-18T07:20:28.773Z,23.6
2022-10-18T07:21:45.813Z,23.8
2022-10-18T07:23:02.820Z,23.9
2022-10-18T10:20:25.854Z,27.9
2022-10-18T10:21:42.802Z,27.4
2022-10-18T10:22:59.854Z,27.4
2022-10-18T10:24:17.737Z,27.5
2022-10-18T10:25:34.840Z,27.5
2022-10-18T10:26:51.815Z,27.6
2022-10-18T10:28:08.807Z,27.8
2022-10-18T10:29:40.584Z,27.7
2022-10-18T10:30:42.840Z,27.8
2022-10-18T10:31:59.822Z,27.8
2022-10-18T10:33:17.990Z,27.7
2022-10-18T10:34:34.881Z,27.7
2022-10-18T10:35:54.888Z,27.6
2022-10-18T10:37:11.824Z,27.7
2022-10-18T10:38:28.878Z,27.8
2022-10-18T10:39:55.425Z,27.9
2022-10-18T10:41:02.914Z,27.9
2022-10-18T10:42:19.968Z,28
2022-10-18T10:43:38.573Z,28.2
2022-10-18T10:44:53.903Z,28.5
2022-10-18T10:46:10.998Z,28.7
2022-10-18T10:47:27.980Z,28.9
2022-10-18T10:48:44.886Z,28.9
2022-10-18T10:50:03.064Z,28.9
2022-10-18T10:51:19.985Z,28.9
2022-10-18T10:52:36.943Z,28.8
2022-10-18T10:53:53.885Z,28.9
2022-10-18T10:55:30.706Z,28.9
2022-10-18T10:56:27.860Z,28.9
2022-10-18T10:57:44.911Z,28.9
2022-10-18T10:59:01.999Z,28.7
2022-10-18T11:00:18.945Z,28.3
2022-10-18T11:01:35.944Z,28
2022-10-18T11:02:59.093Z,27.5
2022-10-18T11:04:09.958Z,27.1
2022-10-18T11:05:26.863Z,26.9
2022-10-18T11:06:43.942Z,26.9
2022-10-18T11:08:00.911Z,27
2022-10-18T11:09:17.874Z,27.1
2022-10-18T11:10:34.926Z,27
2022-10-18T11:11:52.973Z,27
2022-10-18T11:13:09.887Z,26.9
2022-10-18T11:14:27.305Z,26.9
2022-10-18T11:15:43.951Z,26.9
2022-10-18T11:17:03.139Z,27.1
2022-10-18T11:18:18.045Z,27.2
2022-10-18T11:19:35.027Z,27.3
2022-10-18T11:20:52.213Z,27.3
2022-10-18T11:22:10.338Z,27.2
2022-10-18T11:23:27.901Z,27.1
2022-10-18T11:24:44.915Z,27.2
2022-10-18T11:26:03.068Z,27.4
2022-10-18T11:27:19.938Z,27.5
2022-10-18T11:28:38.075Z,27.7
2022-10-18T11:29:54.928Z,27.9
2022-10-18T11:31:12.207Z,28
2022-10-18T11:32:29.059Z,28
2022-10-18T11:34:07.440Z,27.9
2022-10-18T11:35:02.951Z,27.9
2022-10-18T11:36:20.029Z,28
2022-10-18T11:37:38.473Z,27.9
2022-10-18T11:38:53.955Z,27.9
2022-10-18T11:40:11.115Z,27.7
2022-10-18T11:41:28.111Z,27.5
2022-10-18T11:42:44.928Z,27.4
2022-10-18T11:44:03.770Z,27.5
2022-10-18T11:45:20.043Z,27.5
2022-10-18T11:46:37.023Z,27.5
2022-10-18T11:47:55.134Z,27.7
2022-10-18T11:49:10.963Z,27.8
2022-10-18T11:50:27.942Z,28
2022-10-18T11:52:03.492Z,27.8
2022-10-18T11:53:02.175Z,27.7
2022-10-18T11:54:19.049Z,27.5
2022-10-18T11:55:36.007Z,27.4
2022-10-18T11:56:52.974Z,27.2
2022-10-18T11:58:09.991Z,27.2
2022-10-18T11:59:28.118Z,27.3
2022-10-18T12:00:45.007Z,27.5
2022-10-18T12:02:02.089Z,27.7
2022-10-18T12:03:18.994Z,28.1
2022-10-18T12:04:39.158Z,28.5
2022-10-18T12:05:52.970Z,28.9
2022-10-18T12:07:10.062Z,28.9
2022-10-18T12:08:27.071Z,28.7
2022-10-18T12:09:45.050Z,28.4
2022-10-18T12:11:05.691Z,28.1
2022-10-18T12:12:20.001Z,28
2022-10-18T12:13:37.042Z,27.9
2022-10-18T12:14:53.987Z,27.7
2022-10-18T12:16:11.003Z,27.7
2022-10-18T12:17:42.047Z,27.7
2022-10-18T12:18:45.055Z,27.8
2022-10-18T12:20:02.235Z,27.8
2022-10-18T12:21:21.889Z,27.7
2022-10-18T12:22:35.999Z,27.7
2022-10-18T12:23:53.111Z,27.7
2022-10-18T12:25:11.087Z,27.7
2022-10-18T12:26:28.023Z,27.5
2022-10-18T12:27:45.164Z,27.4
2022-10-18T12:29:02.118Z,27.4
2022-10-18T12:30:19.121Z,27.5
2022-10-18T12:31:36.018Z,27.5
2022-10-18T12:33:02.004Z,27.5
2022-10-18T12:34:10.041Z,27.4
2022-10-18T12:35:27.198Z,27.4
2022-10-18T12:36:45.229Z,27.2
2022-10-18T12:38:02.252Z,27
2022-10-18T12:39:24.825Z,27
2022-10-18T12:40:36.097Z,27
2022-10-18T12:41:53.052Z,27
2022-10-18T12:43:10.044Z,26.9
2022-10-18T12:44:27.110Z,26.8
2022-10-18T12:45:44.112Z,26.8
2022-10-18T12:47:01.077Z,26.9
2022-10-18T12:48:18.039Z,27
2022-10-18T12:49:35.046Z,27.1
2022-10-18T12:50:52.124Z,27.1
2022-10-18T12:52:09.044Z,27.2
2022-10-18T12:53:26.075Z,27.2
2022-10-18T12:54:43.247Z,27
2022-10-18T12:56:00.277Z,26.9
2022-10-18T12:57:17.218Z,26.8
2022-10-18T12:58:35.128Z,26.8
2022-10-18T12:59:52.062Z,26.8
2022-10-18T13:01:09.168Z,26.9
2022-10-18T13:02:26.184Z,26.8
2022-10-18T13:03:43.078Z,26.8
2022-10-18T13:05:00.425Z,26.9
2022-10-18T13:06:17.134Z,26.9
2022-10-18T13:11:33.210Z,26.8
2022-10-18T13:12:50.113Z,26.6
2022-10-18T13:14:08.229Z,26.5
2022-10-18T13:15:27.050Z,26.5
2022-10-18T13:16:42.183Z,26.6
2022-10-18T13:17:59.161Z,26.6
2022-10-18T13:19:16.107Z,26.6
2022-10-18T13:20:33.140Z,26.8
2022-10-18T13:21:50.139Z,26.9
2022-10-18T13:23:07.182Z,27.1
2022-10-18T13:24:24.759Z,27.3
2022-10-18T13:25:42.132Z,27.5
2022-10-18T13:27:17.440Z,27.8
2022-10-18T13:28:16.116Z,27.9
2022-10-18T13:29:33.140Z,28.1
2022-10-18T13:30:50.366Z,28.3
2022-10-18T13:32:07.423Z,28.5
2022-10-18T13:33:24.145Z,28.6
2022-10-18T13:34:41.138Z,28.7
2022-10-18T13:35:58.072Z,28.7
2022-10-18T13:37:15.196Z,28.6
2022-10-18T13:38:32.173Z,28.6
2022-10-18T13:39:49.194Z,28.6
2022-10-18T13:41:06.249Z,28.4
2022-10-18T13:42:25.279Z,28.2
2022-10-18T13:43:42.191Z,28
2022-10-18T13:44:59.148Z,27.8
2022-10-18T13:46:16.146Z,27.8
2022-10-18T13:47:33.618Z,27.8
2022-10-18T13:48:51.148Z,27.7
2022-10-18T13:50:08.196Z,27.5
2022-10-18T13:51:25.438Z,27.5
2022-10-18T13:52:43.231Z,27.3
2022-10-18T13:54:00.296Z,27.1
2022-10-18T13:55:17.163Z,26.9
2022-10-18T13:56:34.610Z,26.8
2022-10-18T13:57:52.246Z,26.8
2022-10-18T13:59:15.831Z,26.7
2022-10-18T14:00:26.216Z,26.6
2022-10-18T14:01:43.219Z,26.4
2022-10-18T14:03:00.420Z,26.4
2022-10-18T14:04:17.186Z,26.3
2022-10-18T14:05:34.279Z,26.1
2022-10-18T14:06:51.214Z,26
2022-10-18T14:08:10.498Z,25.9
2022-10-18T14:09:25.837Z,25.7
2022-10-18T14:10:57.595Z,25.6
2022-10-18T14:11:59.205Z,25.6
2022-10-18T14:13:16.256Z,25.5
2022-10-18T14:14:33.199Z,25.3
2022-10-18T14:15:50.228Z,25.1
2022-10-18T14:17:07.252Z,24.9
2022-10-18T14:18:24.234Z,24.7
2022-10-18T14:19:41.191Z,24.5
2022-10-18T14:21:13.161Z,24.3
2022-10-18T14:22:15.295Z,24.1
2022-10-18T14:23:32.227Z,23.9
2022-10-18T14:24:49.234Z,23.7
2022-10-18T14:26:06.236Z,23.6
2022-10-18T14:27:23.561Z,23.5
2022-10-18T14:28:58.964Z,23.3
2022-10-18T14:29:58.260Z,23.2
2022-10-18T14:31:15.251Z,23.1
2022-10-18T14:32:32.251Z,23
2022-10-18T14:33:51.708Z,22.9
2022-10-18T14:35:30.946Z,22.7
2022-10-18T14:36:23.231Z,22.4
2022-10-18T14:37:40.240Z,22.2
2022-10-18T14:38:57.262Z,22
2022-10-18T14:40:14.268Z,21.9
2022-10-18T14:41:31.462Z,21.7
2022-10-18T14:42:48.259Z,21.6
2022-10-18T14:44:05.275Z,21.4
2022-10-18T14:45:22.661Z,21.2
2022-10-18T14:46:40.240Z,20.9
2022-10-18T14:47:57.302Z,20.7
2022-10-18T14:49:14.390Z,20.5
2022-10-18T14:50:31.332Z,20.4
2022-10-18T14:51:48.403Z,20.3
2022-10-18T14:53:05.271Z,20.2
2022-10-18T14:54:23.078Z,20.2
2022-10-18T14:55:39.314Z,20.1
2022-10-18T14:56:56.271Z,20.1
2022-10-18T14:58:13.288Z,20.1
2022-10-18T14:59:30.333Z,20.1
2022-10-18T15:00:48.443Z,20
2022-10-18T15:02:04.439Z,19.8
2022-10-18T15:03:21.303Z,19.8
2022-10-18T15:04:38.274Z,19.8
2022-10-18T15:05:55.324Z,19.8
2022-10-18T15:07:12.354Z,19.8
2022-10-18T15:08:29.426Z,19.8
2022-10-18T15:09:46.503Z,19.8
2022-10-18T15:11:03.549Z,19.7
2022-10-18T15:12:20.327Z,19.6
2022-10-18T15:13:37.529Z,19.4
2022-10-18T15:14:54.342Z,19.2
2022-10-18T15:16:11.435Z,19.2
2022-10-18T15:17:28.296Z,19.2
2022-10-18T15:18:45.299Z,19.2
2022-10-18T15:20:03.558Z,19.2
2022-10-18T15:21:19.312Z,19.3
2022-10-18T15:22:36.341Z,19.2
2022-10-18T15:23:53.348Z,19.2
2022-10-18T15:25:10.360Z,19.2
2022-10-18T15:26:27.330Z,19.2
2022-10-18T15:27:44.344Z,19.3
2022-10-18T15:29:02.871Z,19.2
2022-10-18T15:30:18.377Z,19.3
2022-10-18T15:31:35.311Z,19.4
2022-10-18T15:32:52.351Z,19.5
2022-10-18T15:34:09.944Z,19.5
2022-10-18T15:35:27.334Z,19.5
2022-10-18T15:38:01.432Z,19.3
2022-10-18T15:39:18.385Z,19.3
2022-10-18T15:40:35.375Z,19.2
2022-10-18T15:41:52.360Z,19.2
2022-10-18T15:43:09.330Z,19.2
2022-10-18T15:44:26.410Z,19.2
2022-10-18T15:45:43.435Z,19.2
2022-10-18T15:47:00.508Z,19.2
2022-10-18T15:48:17.344Z,19.2
2022-10-18T15:49:34.357Z,19.2
2022-10-18T15:50:51.339Z,19.3
2022-10-18T15:52:08.376Z,19.3
2022-10-18T15:53:25.480Z,19.4
2022-10-18T15:54:42.430Z,19.3
2022-10-18T15:55:59.367Z,19.4
2022-10-18T15:57:16.365Z,19.4
2022-10-18T15:58:33.393Z,19.3
2022-10-18T15:59:50.388Z,19.2
2022-10-18T16:01:07.430Z,19.2
2022-10-18T16:02:24.396Z,19.2
2022-10-18T16:03:41.417Z,19.2
2022-10-18T16:04:58.549Z,19.4
2022-10-18T16:06:17.347Z,19.5
2022-10-18T16:07:32.580Z,19.6
2022-10-18T16:08:49.382Z,19.7
2022-10-18T16:10:06.570Z,19.8
2022-10-18T16:11:23.377Z,19.8
2022-10-18T16:12:40.407Z,19.8
2022-10-18T16:13:58.065Z,19.9
2022-10-18T16:15:14.391Z,19.9
2022-10-18T16:16:31.409Z,19.9
2022-10-18T16:17:48.603Z,19.9
2022-10-18T16:19:05.415Z,19.9
2022-10-18T16:20:22.506Z,19.9
2022-10-18T16:21:39.404Z,19.9
2022-10-18T16:22:56.405Z,19.9
2022-10-18T16:24:13.443Z,19.9
2022-10-18T16:25:30.427Z,19.9
2022-10-18T16:26:47.444Z,19.9
2022-10-18T16:28:04.689Z,19.8
2022-10-18T16:29:22.409Z,19.7
2022-10-18T16:30:39.474Z,19.6
2022-10-18T16:31:56.530Z,19.5
2022-10-18T16:33:15.680Z,19.5
2022-10-18T16:34:30.418Z,19.5
2022-10-18T16:35:47.432Z,19.5
2022-10-18T16:37:04.459Z,19.5
2022-10-18T16:38:21.468Z,19.4
2022-10-18T16:39:38.461Z,19.2
2022-10-18T16:40:55.636Z,19.1
2022-10-18T16:42:12.470Z,19
2022-10-18T16:43:29.427Z,18.8
2022-10-18T16:48:42.481Z,18.6
2022-10-18T16:50:02.656Z,18.6
2022-10-18T16:51:16.471Z,18.6
2022-10-18T16:52:33.698Z,18.7
2022-10-18T16:53:50.440Z,18.7
2022-10-18T16:55:07.515Z,18.7
2022-10-18T16:56:24.454Z,18.7
2022-10-18T16:57:41.441Z,18.7
2022-10-18T16:58:58.452Z,18.7
2022-10-18T17:00:16.102Z,18.8
2022-10-18T17:01:33.491Z,18.7
2022-10-18T17:02:50.502Z,18.7
2022-10-18T17:04:07.476Z,18.8
2022-10-18T17:05:24.504Z,18.8
2022-10-18T17:06:41.483Z,18.9
2022-10-18T17:07:58.470Z,19
2022-10-18T17:09:15.951Z,19
2022-10-18T17:10:33.466Z,19.1
2022-10-18T17:11:50.490Z,19.1
2022-10-18T17:13:07.476Z,19.3
2022-10-18T17:14:24.504Z,19.3
2022-10-18T17:15:41.523Z,19.2
2022-10-18T17:16:58.475Z,19.2
2022-10-18T17:18:15.544Z,19.2
2022-10-18T17:19:32.587Z,19.2
2022-10-18T17:20:49.510Z,19.3
2022-10-18T17:22:06.505Z,19.2
2022-10-18T17:23:23.574Z,19.3
2022-10-18T17:24:40.501Z,19.3
2022-10-18T17:26:05.192Z,19.2
2022-10-18T17:27:14.512Z,19.2
2022-10-18T17:28:31.958Z,19.1
2022-10-18T17:29:49.553Z,19.1
2022-10-18T17:31:06.562Z,19.1
2022-10-18T17:32:23.513Z,19.1
2022-10-18T17:33:40.567Z,19.1
2022-10-18T17:34:57.578Z,19.1
2022-10-18T17:36:14.547Z,19.1
2022-10-18T17:37:31.716Z,19
2022-10-18T17:38:48.513Z,19
2022-10-18T17:40:05.581Z,18.9
2022-10-18T17:41:22.530Z,18.9
2022-10-18T17:42:39.521Z,18.9
2022-10-18T17:43:56.543Z,18.8
2022-10-18T17:45:13.532Z,18.8
2022-10-18T17:46:30.525Z,18.7
2022-10-18T17:47:47.558Z,18.6
2022-10-18T17:49:04.627Z,18.5
2022-10-18T17:50:22.818Z,18.4
2022-10-18T17:51:39.705Z,18.3
2022-10-18T17:52:56.538Z,18.3
2022-10-18T17:54:14.114Z,18.3
2022-10-18T17:55:30.553Z,18.3
2022-10-18T17:56:49.869Z,18.4
2022-10-18T17:58:04.581Z,18.5
2022-10-18T17:59:21.561Z,18.6
2022-10-18T18:00:39.699Z,18.7
2022-10-18T18:01:56.564Z,18.8
2022-10-18T18:03:13.662Z,19
2022-10-18T18:04:30.573Z,19
2022-10-18T18:05:47.598Z,19.2
2022-10-18T18:07:04.562Z,19.2
2022-10-18T18:08:21.548Z,19.3
2022-10-18T18:09:38.601Z,19.5
2022-10-18T18:10:55.606Z,19.7
2022-10-18T18:12:12.576Z,19.7
2022-10-18T18:13:29.572Z,19.7
2022-10-18T18:14:47.665Z,19.7
2022-10-18T18:16:05.888Z,19.7
2022-10-18T18:17:28.533Z,19.7
2022-10-18T18:18:39.797Z,19.6
2022-10-18T18:19:56.782Z,19.7
2022-10-18T18:21:14.705Z,19.7
2022-10-18T18:22:32.855Z,19.9
2022-10-18T18:23:49.586Z,20
2022-10-18T18:25:06.838Z,20.1
2022-10-18T18:26:23.596Z,20.1
2022-10-18T18:27:40.742Z,20.1
2022-10-18T18:28:57.719Z,20
2022-10-18T18:30:14.599Z,20
2022-10-18T18:31:32.493Z,20
2022-10-18T18:32:48.666Z,19.9
2022-10-18T18:34:05.753Z,19.9
2022-10-18T18:35:22.650Z,19.8
2022-10-18T18:36:39.629Z,19.7
2022-10-18T18:37:56.620Z,19.6
2022-10-18T18:39:13.639Z,19.6
2022-10-18T18:40:30.656Z,19.5
2022-10-18T18:41:47.608Z,19.4
2022-10-18T18:43:12.301Z,19.5
2022-10-18T18:44:23.060Z,19.4
2022-10-18T18:45:40.827Z,19.2
2022-10-18T18:46:57.655Z,19.1
2022-10-18T18:48:17.596Z,19.1
2022-10-18T18:49:31.651Z,19
2022-10-18T18:50:48.733Z,18.9
2022-10-18T18:52:05.647Z,18.9
2022-10-18T18:53:24.922Z,18.8
2022-10-18T18:54:39.721Z,18.8
2022-10-18T18:55:56.666Z,18.8
2022-10-18T18:57:14.067Z,18.8
2022-10-18T18:58:31.634Z,19
2022-10-18T18:59:49.021Z,19.1
2022-10-18T19:01:06.697Z,19.2
2022-10-18T19:02:23.894Z,19.4
2022-10-18T19:03:40.648Z,19.4
2022-10-18T19:04:57.690Z,19.5
2022-10-18T19:06:14.727Z,19.6
2022-10-18T19:07:32.171Z,19.7
2022-10-18T19:08:48.710Z,19.7
2022-10-18T19:10:05.765Z,19.8
2022-10-18T19:11:22.675Z,19.8
2022-10-18T19:12:39.682Z,19.8
2022-10-18T19:13:56.664Z,19.8
2022-10-18T19:15:13.807Z,19.7
2022-10-18T19:16:30.711Z,19.6
2022-10-18T19:17:47.698Z,19.6
2022-10-18T19:19:04.694Z,19.5
2022-10-18T19:20:21.661Z,19.5
2022-10-18T19:21:38.702Z,19.5
2022-10-18T19:22:55.714Z,19.5
2022-10-18T19:24:12.679Z,19.5
2022-10-18T19:25:29.673Z,19.5
2022-10-18T19:26:46.724Z,19.6
2022-10-18T19:28:03.724Z,19.6
2022-10-18T19:29:20.698Z,19.6
2022-10-18T19:30:37.685Z,19.6
2022-10-18T19:31:54.914Z,19.5
2022-10-18T19:33:11.702Z,19.5
2022-10-18T19:34:28.703Z,19.5
2022-10-18T19:35:45.698Z,19.5
2022-10-18T19:37:02.837Z,19.5
2022-10-18T19:38:19.771Z,19.4
2022-10-18T19:39:36.749Z,19.3
2022-10-18T19:40:53.913Z,19.2
2022-10-18T19:42:10.744Z,19.2
2022-10-18T19:43:27.716Z,19.1
2022-10-18T19:44:44.768Z,19.1
2022-10-18T19:46:01.719Z,19.2
2022-10-18T19:47:18.719Z,19.2
2022-10-18T19:48:35.826Z,19.3
2022-10-18T19:49:52.753Z,19.4
2022-10-18T19:51:10.032Z,19.5
2022-10-18T19:52:26.789Z,19.5
2022-10-18T19:53:43.872Z,19.4
2022-10-18T19:55:00.726Z,19.3
2022-10-18T19:56:17.737Z,19.1
2022-10-18T19:57:34.721Z,19
2022-10-18T19:58:51.750Z,18.9
2022-10-18T20:00:09.831Z,18.9
2022-10-18T20:01:25.825Z,18.9
2022-10-18T20:02:42.750Z,19
2022-10-18T20:03:59.734Z,19.1
2022-10-18T20:05:16.726Z,19.1
2022-10-18T20:06:33.800Z,19.3
2022-10-18T20:07:50.750Z,19.3
2022-10-18T20:09:07.860Z,19.4
2022-10-18T20:10:24.736Z,19.4
2022-10-18T20:11:41.835Z,19.5
2022-10-18T20:12:58.749Z,19.5
2022-10-18T20:14:17.130Z,19.6
2022-10-18T20:15:35.753Z,19.6